createdAt,value
2023-03-02T00:01:48.685Z,66.30
2023-03-02T00:04:32.238Z,66.30
2023-03-02T00:07:07.759Z,66.30
2023-03-02T00:09:35.702Z,66.30
2023-03-02T00:12:03.256Z,66.10
2023-03-02T00:14:30.576Z,66.10
2023-03-02T00:16:57.662Z,66.00
2023-03-02T00:19:24.586Z,66.00
2023-03-02T00:21:51.778Z,65.80
2023-03-02T00:24:19.083Z,65.70
2023-03-02T00:26:45.999Z,65.70
2023-03-02T00:29:13.353Z,65.60
2023-03-02T00:31:40.424Z,65.60
2023-03-02T00:34:07.673Z,65.60
2023-03-02T00:36:34.558Z,65.60
2023-03-02T00:39:01.733Z,66.50
2023-03-02T00:41:28.972Z,65.50
2023-03-02T00:43:57.561Z,65.50
2023-03-02T00:46:25.819Z,65.60
2023-03-02T00:48:53.102Z,65.50
2023-03-02T00:51:20.628Z,65.50
2023-03-02T00:53:47.814Z,65.50
2023-03-02T00:56:14.767Z,65.50
2023-03-02T00:58:47.477Z,65.40
2023-03-02T01:01:15.923Z,65.40
2023-03-02T01:03:47.330Z,65.30
2023-03-02T01:06:18.405Z,65.30
2023-03-02T01:08:46.048Z,65.40
2023-03-02T01:11:21.203Z,65.30
2023-03-02T01:13:49.403Z,65.30
2023-03-02T01:16:17.055Z,65.40
2023-03-02T01:18:44.101Z,65.30
2023-03-02T01:21:15.344Z,65.30
2023-03-02T01:23:42.773Z,65.20
2023-03-02T01:26:11.506Z,65.20
2023-03-02T01:28:38.617Z,65.20
2023-03-02T01:31:05.672Z,65.20
2023-03-02T01:33:33.116Z,65.30
2023-03-02T01:36:00.442Z,65.10
2023-03-02T01:38:27.904Z,65.20
2023-03-02T01:40:55.123Z,65.20
2023-03-02T01:43:22.444Z,65.20
2023-03-02T01:45:59.901Z,65.20
2023-03-02T01:48:52.643Z,65.20
2023-03-02T01:51:30.941Z,65.20
2023-03-02T01:54:04.792Z,65.20
2023-03-02T01:56:36.331Z,65.20
2023-03-02T01:59:11.133Z,65.30
2023-03-02T02:01:43.373Z,65.30
2023-03-02T02:04:10.795Z,65.30
2023-03-02T02:07:03.320Z,65.30
2023-03-02T02:09:35.442Z,65.30
2023-03-02T02:12:03.112Z,65.30
2023-03-02T02:14:30.064Z,65.30
2023-03-02T02:16:57.169Z,66.30
2023-03-02T02:20:41.009Z,65.30
2023-03-02T02:23:19.304Z,65.30
2023-03-02T02:26:03.413Z,65.20
2023-03-02T02:28:37.949Z,65.20
2023-03-02T02:31:15.552Z,65.20
2023-03-02T02:33:45.798Z,65.20
2023-03-02T02:36:22.549Z,65.20
2023-03-02T02:38:55.121Z,65.10
2023-03-02T02:41:30.537Z,65.10
2023-03-02T02:43:58.025Z,65.10
2023-03-02T02:46:25.584Z,65.00
2023-03-02T02:48:54.023Z,65.00
2023-03-02T02:51:26.832Z,64.90
2023-03-02T02:54:01.744Z,64.90
2023-03-02T02:56:37.411Z,64.80
2023-03-02T02:59:20.166Z,64.80
2023-03-02T03:01:48.777Z,64.70
2023-03-02T03:04:21.862Z,64.70
2023-03-02T03:07:01.031Z,64.60
2023-03-02T03:09:28.329Z,64.70
2023-03-02T03:12:11.361Z,64.60
2023-03-02T03:14:41.809Z,64.60
2023-03-02T03:17:13.987Z,64.60
2023-03-02T03:19:52.884Z,64.40
2023-03-02T03:22:20.401Z,64.50
2023-03-02T03:24:50.271Z,64.40
2023-03-02T03:27:18.890Z,64.60
2023-03-02T03:29:50.352Z,64.60
2023-03-02T03:32:20.561Z,64.60
2023-03-02T03:34:50.049Z,64.60
2023-03-02T03:37:25.309Z,64.60
2023-03-02T03:39:52.879Z,64.60
2023-03-02T03:42:21.288Z,64.70
2023-03-02T03:44:49.513Z,64.80
2023-03-02T03:47:16.735Z,65.00
2023-03-02T03:49:44.623Z,65.10
2023-03-02T03:52:11.626Z,65.00
2023-03-02T03:54:38.624Z,65.00
2023-03-02T03:57:08.514Z,64.90
2023-03-02T03:59:35.419Z,65.00
2023-03-02T04:02:04.156Z,65.10
2023-03-02T04:04:37.707Z,65.00
2023-03-02T04:07:13.420Z,65.00
2023-03-02T04:09:41.626Z,64.90
2023-03-02T04:12:12.290Z,64.90
2023-03-02T04:14:43.145Z,64.80
2023-03-02T04:17:11.453Z,65.00
2023-03-02T04:19:42.486Z,65.10
2023-03-02T04:22:10.526Z,65.20
2023-03-02T04:24:37.780Z,65.10
2023-03-02T04:27:05.182Z,65.30
2023-03-02T04:29:34.450Z,65.40
2023-03-02T04:32:03.769Z,65.60
2023-03-02T04:34:33.705Z,65.60
2023-03-02T04:37:00.918Z,65.80
2023-03-02T04:39:27.989Z,65.80
2023-03-02T04:41:55.711Z,65.90
2023-03-02T04:44:22.854Z,66.10
2023-03-02T04:46:50.081Z,66.30
2023-03-02T04:49:19.630Z,66.40
2023-03-02T04:51:49.610Z,66.70
2023-03-02T04:54:25.331Z,66.70
2023-03-02T04:56:53.692Z,66.90
2023-03-02T04:59:28.397Z,66.90
2023-03-02T05:01:58.965Z,67.90
2023-03-02T05:04:27.595Z,66.90
2023-03-02T05:06:55.201Z,67.00
2023-03-02T05:09:27.185Z,67.00
2023-03-02T05:11:55.460Z,67.10
2023-03-02T05:14:23.202Z,67.20
2023-03-02T05:16:50.666Z,67.20
2023-03-02T05:19:18.611Z,67.20
2023-03-02T05:21:46.310Z,67.40
2023-03-02T05:24:13.510Z,67.40
2023-03-02T05:26:40.495Z,67.50
2023-03-02T05:29:07.785Z,67.40
2023-03-02T05:31:41.682Z,67.30
2023-03-02T05:34:12.562Z,67.30
2023-03-02T05:36:39.902Z,67.20
2023-03-02T05:39:08.291Z,67.10
2023-03-02T05:41:36.054Z,67.30
2023-03-02T05:44:03.905Z,67.20
2023-03-02T05:46:31.522Z,67.30
2023-03-02T05:48:58.640Z,67.20
2023-03-02T05:51:25.691Z,67.40
2023-03-02T05:53:52.594Z,67.30
2023-03-02T05:56:22.316Z,67.40
2023-03-02T05:58:49.281Z,67.40
2023-03-02T06:01:16.431Z,67.60
2023-03-02T06:03:43.765Z,67.60
2023-03-02T06:06:14.044Z,67.60
2023-03-02T06:08:42.703Z,67.60
2023-03-02T06:11:10.939Z,67.70
2023-03-02T06:13:38.691Z,67.80
2023-03-02T06:16:06.354Z,67.80
2023-03-02T06:18:34.395Z,67.80
2023-03-02T06:21:01.543Z,67.90
2023-03-02T06:23:28.604Z,67.90
2023-03-02T06:25:55.642Z,68.00
2023-03-02T06:28:22.610Z,68.10
2023-03-02T06:30:50.231Z,68.10
2023-03-02T06:33:18.914Z,68.20
2023-03-02T06:35:48.189Z,68.10
2023-03-02T06:38:15.564Z,68.10
2023-03-02T06:40:42.482Z,68.10
2023-03-02T06:43:09.713Z,68.10
2023-03-02T06:45:37.708Z,68.10
2023-03-02T06:48:05.980Z,68.10
2023-03-02T06:50:34.094Z,68.10
2023-03-02T06:53:01.508Z,68.10
2023-03-02T06:55:28.508Z,68.00
2023-03-02T06:57:55.557Z,67.80
2023-03-02T07:00:27.989Z,67.70
2023-03-02T07:02:55.942Z,67.70
2023-03-02T07:05:24.336Z,67.50
2023-03-02T07:07:51.709Z,67.30
2023-03-02T07:10:19.071Z,67.30
2023-03-02T07:12:46.002Z,67.30
2023-03-02T07:15:14.203Z,67.10
2023-03-02T07:17:44.450Z,67.10
2023-03-02T07:20:17.881Z,66.80
2023-03-02T07:22:44.958Z,66.80
2023-03-02T07:25:14.544Z,66.80
2023-03-02T07:27:42.064Z,66.60
2023-03-02T07:30:10.188Z,66.60
2023-03-02T07:32:37.258Z,66.70
2023-03-02T07:35:05.103Z,66.60
2023-03-02T07:37:32.134Z,66.50
2023-03-02T07:40:00.783Z,66.30
2023-03-02T07:42:28.146Z,66.40
2023-03-02T07:44:57.904Z,66.40
2023-03-02T07:47:25.063Z,66.30
2023-03-02T07:49:52.016Z,66.20
2023-03-02T07:52:18.951Z,66.00
2023-03-02T07:54:45.838Z,66.10
2023-03-02T07:57:16.061Z,66.10
2023-03-02T07:59:43.796Z,66.20
2023-03-02T08:02:15.609Z,66.10
2023-03-02T08:04:43.784Z,66.10
2023-03-02T08:07:10.658Z,65.80
2023-03-02T08:09:39.653Z,65.70
2023-03-02T08:12:06.600Z,65.30
2023-03-02T08:14:33.679Z,66.00
2023-03-02T08:17:00.666Z,65.00
2023-03-02T08:19:27.733Z,64.70
2023-03-02T08:21:54.781Z,64.60
2023-03-02T08:24:21.909Z,64.60
2023-03-02T08:26:48.967Z,64.40
2023-03-02T08:29:15.844Z,64.20
2023-03-02T08:31:42.836Z,63.90
2023-03-02T08:34:09.920Z,63.90
2023-03-02T08:36:36.916Z,64.10
2023-03-02T08:39:03.944Z,63.50
2023-03-02T08:41:31.200Z,63.60
2023-03-02T08:43:58.408Z,63.30
2023-03-02T08:46:25.326Z,63.20
2023-03-02T08:48:52.407Z,63.20
2023-03-02T08:51:25.478Z,63.20
2023-03-02T08:53:55.414Z,62.80
2023-03-02T08:56:29.402Z,63.10
2023-03-02T08:59:01.271Z,63.00
2023-03-02T09:01:32.558Z,63.00
2023-03-02T09:04:00.734Z,63.10
2023-03-02T09:06:30.156Z,62.80
2023-03-02T09:08:57.766Z,62.80
2023-03-02T09:11:25.576Z,63.00
2023-03-02T09:13:53.133Z,63.00
2023-03-02T09:16:20.305Z,62.90
2023-03-02T09:18:48.046Z,62.80
2023-03-02T09:21:14.995Z,62.80
2023-03-02T09:23:42.297Z,62.80
2023-03-02T09:26:09.728Z,62.90
2023-03-02T09:28:38.003Z,63.00
2023-03-02T09:31:07.961Z,63.80
2023-03-02T09:33:35.928Z,62.70
2023-03-02T09:36:14.148Z,62.80
2023-03-02T09:38:41.099Z,62.70
2023-03-02T09:41:20.054Z,62.60
2023-03-02T09:44:25.718Z,62.60
2023-03-02T09:47:36.605Z,62.70
2023-03-02T09:50:06.397Z,62.80
2023-03-02T09:52:45.101Z,62.50
2023-03-02T09:55:35.253Z,62.10
2023-03-02T09:58:08.214Z,62.50
2023-03-02T10:00:42.191Z,63.20
2023-03-02T10:03:18.218Z,62.30
2023-03-02T10:05:51.456Z,62.30
2023-03-02T10:08:30.241Z,62.30
2023-03-02T10:11:37.190Z,62.30
2023-03-02T10:14:23.545Z,62.20
2023-03-02T10:17:16.232Z,62.00
2023-03-02T10:19:53.934Z,61.80
2023-03-02T10:22:50.549Z,62.00
2023-03-02T10:25:49.078Z,62.00
2023-03-02T10:28:38.457Z,61.70
2023-03-02T10:31:24.230Z,61.70
2023-03-02T10:33:51.320Z,61.40
2023-03-02T10:36:27.612Z,61.80
2023-03-02T10:38:56.802Z,61.60
2023-03-02T10:41:34.768Z,61.70
2023-03-02T10:44:15.891Z,61.70
2023-03-02T10:46:46.153Z,61.70
2023-03-02T10:49:39.302Z,61.60
2023-03-02T10:52:18.098Z,61.70
2023-03-02T10:54:45.298Z,61.80
2023-03-02T10:57:41.546Z,61.60
2023-03-02T11:00:18.010Z,61.40
2023-03-02T11:02:55.098Z,61.40
2023-03-02T11:05:38.121Z,61.40
2023-03-02T11:08:10.985Z,59.80
2023-03-02T11:11:00.916Z,59.80
2023-03-02T11:13:32.242Z,60.00
2023-03-02T11:16:22.770Z,59.70
2023-03-02T11:19:29.493Z,59.90
2023-03-02T11:22:04.701Z,60.00
2023-03-02T11:24:48.479Z,59.70
2023-03-02T11:27:31.292Z,59.70
2023-03-02T11:30:03.825Z,59.70
2023-03-02T11:32:45.594Z,59.10
2023-03-02T11:35:55.993Z,59.40
2023-03-02T11:38:38.006Z,59.70
2023-03-02T11:41:19.755Z,59.70
2023-03-02T11:43:46.819Z,60.00
2023-03-02T11:46:26.223Z,59.60
2023-03-02T11:48:57.800Z,59.20
2023-03-02T11:51:30.509Z,59.40
2023-03-02T11:54:11.473Z,59.20
2023-03-02T11:56:40.024Z,59.00
2023-03-02T11:59:28.899Z,59.00
2023-03-02T12:01:57.495Z,59.20
2023-03-02T12:04:32.510Z,59.00
2023-03-02T12:07:03.098Z,58.60
2023-03-02T12:09:37.565Z,58.90
2023-03-02T12:12:22.466Z,59.50
2023-03-02T12:14:49.535Z,58.50
2023-03-02T12:17:25.124Z,58.80
2023-03-02T12:19:55.497Z,57.70
2023-03-02T12:22:31.598Z,59.30
2023-03-02T12:25:18.312Z,58.80
2023-03-02T12:27:48.651Z,58.20
2023-03-02T12:30:16.072Z,58.00
2023-03-02T12:33:01.914Z,55.20
2023-03-02T12:35:35.139Z,56.50
2023-03-02T12:38:33.824Z,53.80
2023-03-02T12:41:14.656Z,53.70
2023-03-02T12:44:07.845Z,51.80
2023-03-02T12:46:37.602Z,51.30
2023-03-02T12:49:20.426Z,50.80
2023-03-02T12:52:03.593Z,50.10
2023-03-02T12:54:34.384Z,49.90
2023-03-02T12:57:17.571Z,47.10
2023-03-02T12:59:52.453Z,47.40
2023-03-02T13:02:24.058Z,44.70
2023-03-02T13:05:07.213Z,44.40
2023-03-02T13:07:44.387Z,44.60
2023-03-02T13:10:39.198Z,42.20
2023-03-02T13:13:36.141Z,43.10
2023-03-02T13:16:23.216Z,42.70
2023-03-02T13:18:56.602Z,39.70
2023-03-02T13:21:39.932Z,38.40
2023-03-02T13:24:28.593Z,40.40
2023-03-02T13:27:07.684Z,40.00
2023-03-02T13:29:35.385Z,38.90
2023-03-02T13:32:35.969Z,36.30
2023-03-02T13:35:04.807Z,39.00
2023-03-02T13:37:43.759Z,36.10
2023-03-02T13:40:24.203Z,36.50
2023-03-02T13:42:51.648Z,36.80
2023-03-02T13:45:27.081Z,34.90
2023-03-02T13:47:57.990Z,34.90
2023-03-02T13:50:31.619Z,34.40
2023-03-02T13:53:06.930Z,34.60
2023-03-02T13:55:34.933Z,34.50
2023-03-02T13:58:02.280Z,34.40
2023-03-02T14:00:34.548Z,34.50
2023-03-02T14:03:02.168Z,35.30
2023-03-02T14:05:35.184Z,33.70
2023-03-02T14:08:02.985Z,33.90
2023-03-02T14:10:30.021Z,34.20
2023-03-02T14:13:02.882Z,33.90
2023-03-02T14:15:30.052Z,34.30
2023-03-02T14:17:57.189Z,34.10
2023-03-02T14:20:24.237Z,34.10
2023-03-02T14:22:51.210Z,34.10
2023-03-02T14:25:19.439Z,33.70
2023-03-02T14:27:47.525Z,33.70
2023-03-02T14:30:20.530Z,33.70
2023-03-02T14:32:47.757Z,33.70
2023-03-02T14:35:16.681Z,33.90
2023-03-02T14:37:47.702Z,33.70
2023-03-02T14:40:27.306Z,33.50
2023-03-02T14:42:54.704Z,33.80
2023-03-02T14:45:22.992Z,33.70
2023-03-02T14:47:50.139Z,33.60
2023-03-02T14:50:17.297Z,33.90
2023-03-02T14:52:54.977Z,33.70
2023-03-02T14:55:32.648Z,34.40
2023-03-02T14:58:05.016Z,34.60
2023-03-02T15:00:32.398Z,34.00
2023-03-02T15:02:59.857Z,34.30
2023-03-02T15:05:26.835Z,34.10
2023-03-02T15:07:58.721Z,34.40
2023-03-02T15:10:26.232Z,34.30
2023-03-02T15:12:53.081Z,34.40
2023-03-02T15:15:20.207Z,34.20
2023-03-02T15:17:47.152Z,34.10
2023-03-02T15:20:16.327Z,34.20
2023-03-02T15:22:43.606Z,34.30
2023-03-02T15:25:11.146Z,34.50
2023-03-02T15:27:38.194Z,34.50
2023-03-02T15:30:06.532Z,34.10
2023-03-02T15:32:33.587Z,34.40
2023-03-02T15:35:00.813Z,34.10
2023-03-02T15:37:28.298Z,34.20
2023-03-02T15:39:56.344Z,34.30
2023-03-02T15:42:23.959Z,34.80
2023-03-02T15:44:50.956Z,34.90
2023-03-02T15:47:17.969Z,35.50
2023-03-02T15:49:44.857Z,36.10
2023-03-02T15:52:12.470Z,36.70
2023-03-02T15:54:39.765Z,37.20
2023-03-02T15:57:07.492Z,37.70
2023-03-02T15:59:34.913Z,38.30
2023-03-02T16:02:02.535Z,38.70
2023-03-02T16:04:32.156Z,39.30
2023-03-02T16:06:59.687Z,39.80
2023-03-02T16:09:28.907Z,40.50
2023-03-02T16:11:56.238Z,40.60
2023-03-02T16:14:23.585Z,41.10
2023-03-02T16:16:51.463Z,41.60
2023-03-02T16:19:19.530Z,42.10
2023-03-02T16:21:47.973Z,42.40
2023-03-02T16:24:16.900Z,43.10
2023-03-02T16:26:44.720Z,43.40
2023-03-02T16:29:13.392Z,43.70
2023-03-02T16:31:41.301Z,44.10
2023-03-02T16:34:09.863Z,44.60
2023-03-02T16:36:39.223Z,44.90
2023-03-02T16:39:07.632Z,45.30
2023-03-02T16:41:35.839Z,45.60
2023-03-02T16:44:03.183Z,45.70
2023-03-02T16:46:36.281Z,46.00
2023-03-02T16:49:05.503Z,46.40
2023-03-02T16:51:33.454Z,46.60
2023-03-02T16:54:00.637Z,46.80
2023-03-02T16:56:27.764Z,47.00
2023-03-02T16:58:55.662Z,47.20
2023-03-02T17:01:23.537Z,47.50
2023-03-02T17:03:51.888Z,47.50
2023-03-02T17:06:23.000Z,47.80
2023-03-02T17:08:50.720Z,48.00
2023-03-02T17:11:18.823Z,48.30
2023-03-02T17:13:45.969Z,50.50
2023-03-02T17:16:13.344Z,50.60
2023-03-02T17:18:41.061Z,51.90
2023-03-02T17:21:08.357Z,51.00
2023-03-02T17:23:36.787Z,51.50
2023-03-02T17:26:03.962Z,52.30
2023-03-02T17:28:31.259Z,52.20
2023-03-02T17:30:59.468Z,52.60
2023-03-02T17:33:26.711Z,52.70
2023-03-02T17:35:53.673Z,53.60
2023-03-02T17:38:20.721Z,53.60
2023-03-02T17:40:47.690Z,54.30
2023-03-02T17:43:14.681Z,54.50
2023-03-02T17:45:41.626Z,54.40
2023-03-02T17:48:08.537Z,54.40
2023-03-02T17:50:35.533Z,54.30
2023-03-02T17:53:03.130Z,54.30
2023-03-02T17:55:30.824Z,54.10
2023-03-02T17:57:57.757Z,54.20
2023-03-02T18:00:25.678Z,54.10
2023-03-02T18:02:53.555Z,54.30
2023-03-02T18:05:21.743Z,54.50
2023-03-02T18:07:49.065Z,54.70
2023-03-02T18:10:16.261Z,54.70
2023-03-02T18:12:43.254Z,55.10
2023-03-02T18:15:11.693Z,55.40
2023-03-02T18:17:39.051Z,56.00
2023-03-02T18:20:06.761Z,55.60
2023-03-02T18:22:33.899Z,56.30
2023-03-02T18:25:01.112Z,56.20
2023-03-02T18:27:28.131Z,56.40
2023-03-02T18:29:55.087Z,56.40
2023-03-02T18:32:22.338Z,56.20
2023-03-02T18:34:49.363Z,56.40
2023-03-02T18:37:16.436Z,56.60
2023-03-02T18:39:43.736Z,56.50
2023-03-02T18:42:12.608Z,56.50
2023-03-02T18:44:39.891Z,56.60
2023-03-02T18:50:37.113Z,57.00
2023-03-02T18:53:04.124Z,56.80
2023-03-02T19:00:27.932Z,57.00
2023-03-02T19:02:56.580Z,57.20
2023-03-02T19:05:26.831Z,57.20
2023-03-02T19:07:54.850Z,57.50
2023-03-02T19:10:21.894Z,57.60
2023-03-02T19:12:48.869Z,57.70
2023-03-02T19:15:16.066Z,57.80
2023-03-02T19:17:43.942Z,58.00
2023-03-02T19:20:16.523Z,58.20
2023-03-02T19:22:43.552Z,58.50
2023-03-02T19:25:11.497Z,58.40
2023-03-02T19:27:38.661Z,58.70
2023-03-02T19:30:09.292Z,58.80
2023-03-02T19:32:37.722Z,58.90
2023-03-02T19:35:05.324Z,58.90
2023-03-02T19:37:33.292Z,58.80
2023-03-02T19:40:00.334Z,59.00
2023-03-02T19:42:28.040Z,59.20
2023-03-02T19:44:54.901Z,59.20
2023-03-02T19:47:21.770Z,59.20
2023-03-02T19:49:48.796Z,59.50
2023-03-02T19:52:15.665Z,59.50
2023-03-02T19:54:43.578Z,59.70
2023-03-02T19:57:10.545Z,60.00
2023-03-02T19:59:40.531Z,60.00
2023-03-02T20:02:07.755Z,60.30
2023-03-02T20:04:35.111Z,60.40
2023-03-02T20:07:03.106Z,60.40
2023-03-02T20:09:30.100Z,60.40
2023-03-02T20:11:58.628Z,60.60
2023-03-02T20:14:33.827Z,61.00
2023-03-02T20:17:02.861Z,60.60
2023-03-02T20:19:29.940Z,60.70
2023-03-02T20:21:57.136Z,60.70
2023-03-02T20:24:24.151Z,60.90
2023-03-02T20:26:51.183Z,60.90
2023-03-02T20:29:18.513Z,61.00
2023-03-02T20:31:45.925Z,61.10
2023-03-02T20:34:15.911Z,61.10
2023-03-02T20:36:44.078Z,61.40
2023-03-02T20:39:20.092Z,61.40
2023-03-02T20:41:47.100Z,61.50
2023-03-02T20:44:14.969Z,61.50
2023-03-02T20:46:47.279Z,61.60
2023-03-02T20:49:15.714Z,61.70
2023-03-02T20:51:49.301Z,61.60
2023-03-02T20:54:16.975Z,61.80
2023-03-02T20:56:44.597Z,61.80
2023-03-02T20:59:13.480Z,61.70
2023-03-02T21:01:41.108Z,61.80
2023-03-02T21:04:08.357Z,61.80
2023-03-02T21:06:35.406Z,62.00
2023-03-02T21:09:05.187Z,62.10
2023-03-02T21:11:32.347Z,62.30
2023-03-02T21:13:59.415Z,62.30
2023-03-02T21:16:32.388Z,62.70
2023-03-02T21:18:59.577Z,63.60
2023-03-02T21:21:39.451Z,62.70
2023-03-02T21:24:13.930Z,64.00
2023-03-02T21:26:41.570Z,64.30
2023-03-02T21:29:11.576Z,64.00
2023-03-02T21:31:42.234Z,63.80
2023-03-02T21:34:12.902Z,63.60
2023-03-02T21:36:40.281Z,63.70
2023-03-02T21:39:09.267Z,63.50
2023-03-02T21:41:36.613Z,63.50
2023-03-02T21:44:05.569Z,63.40
2023-03-02T21:46:34.853Z,64.40
2023-03-02T21:49:02.024Z,63.50
2023-03-02T21:51:28.959Z,63.70
2023-03-02T21:53:55.998Z,64.40
2023-03-02T21:56:25.451Z,64.50
2023-03-02T21:58:56.712Z,64.40
2023-03-02T22:01:26.134Z,64.60
2023-03-02T22:03:53.350Z,64.30
2023-03-02T22:06:27.728Z,64.60
2023-03-02T22:08:55.756Z,64.80
2023-03-02T22:11:33.888Z,64.80
2023-03-02T22:14:10.626Z,65.10
2023-03-02T22:16:40.237Z,65.30
2023-03-02T22:19:29.989Z,65.30
2023-03-02T22:22:00.304Z,65.30
2023-03-02T22:24:33.055Z,65.30
2023-03-02T22:27:05.585Z,65.40
2023-03-02T22:29:43.188Z,65.20
2023-03-02T22:32:24.909Z,65.10
2023-03-02T22:34:55.781Z,65.30
2023-03-02T22:37:33.877Z,65.30
2023-03-02T22:40:32.798Z,65.30
2023-03-02T22:43:12.091Z,65.30
2023-03-02T22:45:42.246Z,65.70
2023-03-02T22:48:19.084Z,66.10
2023-03-02T22:50:48.917Z,66.20
2023-03-02T22:53:32.451Z,66.50
2023-03-02T22:56:03.388Z,66.70
2023-03-02T22:58:46.379Z,66.50
2023-03-02T23:01:29.340Z,66.50
2023-03-02T23:04:24.503Z,66.50
2023-03-02T23:06:57.149Z,66.10
2023-03-02T23:09:33.324Z,66.20
2023-03-02T23:12:13.653Z,66.30
2023-03-02T23:14:52.522Z,66.40
2023-03-02T23:17:31.589Z,66.50
2023-03-02T23:19:58.772Z,66.40
2023-03-02T23:22:28.621Z,66.40
2023-03-02T23:24:58.773Z,66.40
2023-03-02T23:27:25.700Z,66.60
2023-03-02T23:29:53.120Z,66.50
2023-03-02T23:32:20.354Z,66.50
2023-03-02T23:34:47.459Z,66.50
2023-03-02T23:37:14.504Z,66.50
2023-03-02T23:39:41.438Z,66.50
2023-03-02T23:42:09.106Z,66.50
2023-03-02T23:44:36.089Z,66.40
2023-03-02T23:47:03.357Z,66.40
2023-03-02T23:49:30.361Z,67.30
2023-03-02T23:51:57.242Z,66.50
2023-03-02T23:54:24.192Z,66.70
2023-03-02T23:56:51.326Z,67.00
2023-03-02T23:59:18.394Z,66.80
